sensor_id;sensor_type;location;lat;lon;timestamp;pressure;altitude;pressure_sealevel;temperature;humidity
29417;BME280;28421;51.030;4.006;2023-04-04T03:20:58;102855.75;;;-0.71;75.56
29417;BME280;28421;51.030;4.006;2023-04-04T03:23:23;102873.13;;;-0.64;75.93
29417;BME280;28421;51.030;4.006;2023-04-04T03:25:49;102865.81;;;-0.83;76.18
29417;BME280;28421;51.030;4.006;2023-04-04T03:28:15;102889.28;;;-0.73;75.66
29417;BME280;28421;51.030;4.006;2023-04-04T03:30:41;102879.91;;;-0.84;75.87
29417;BME280;28421;51.030;4.006;2023-04-04T03:33:06;102862.25;;;-1.10;76.10
29417;BME280;28421;51.030;4.006;2023-04-04T03:35:36;102851.53;;;-1.05;76.63
29417;BME280;28421;51.030;4.006;2023-04-04T03:38:02;102862.56;;;-0.91;76.32
29417;BME280;28421;51.030;4.006;2023-04-04T03:40:28;102895.56;;;-0.78;76.08
29417;BME280;28421;51.030;4.006;2023-04-04T03:42:53;102902.25;;;-0.66;75.83
29417;BME280;28421;51.030;4.006;2023-04-04T03:45:19;102860.41;;;-0.80;75.59
29417;BME280;28421;51.030;4.006;2023-04-04T03:47:44;102906.25;;;-0.54;75.34
29417;BME280;28421;51.030;4.006;2023-04-04T03:50:10;102883.91;;;-0.70;75.14
29417;BME280;28421;51.030;4.006;2023-04-04T03:52:39;102909.03;;;-0.59;75.34
29417;BME280;28421;51.030;4.006;2023-04-04T03:55:05;102871.97;;;-0.82;75.36
29417;BME280;28421;51.030;4.006;2023-04-04T03:57:32;102904.53;;;-0.83;75.49
29417;BME280;28421;51.030;4.006;2023-04-04T03:59:57;102887.88;;;-0.85;75.41
29417;BME280;28421;51.030;4.006;2023-04-04T04:02:22;102879.88;;;-0.82;75.23
29417;BME280;28421;51.030;4.006;2023-04-04T04:04:48;102879.13;;;-0.87;75.54
29417;BME280;28421;51.030;4.006;2023-04-04T04:07:13;102879.34;;;-0.93;75.65
29417;BME280;28421;51.030;4.006;2023-04-04T04:09:40;102869.84;;;-0.99;75.35
29417;BME280;28421;51.030;4.006;2023-04-04T04:12:06;102885.56;;;-0.96;75.55
29417;BME280;28421;51.030;4.006;2023-04-04T04:14:32;102893.47;;;-0.94;75.18
29417;BME280;28421;51.030;4.006;2023-04-04T04:17:00;102892.69;;;-0.98;75.88
29417;BME280;28421;51.030;4.006;2023-04-04T04:19:25;102849.38;;;-1.20;75.66
29417;BME280;28421;51.030;4.006;2023-04-04T04:21:50;102896.25;;;-0.99;75.20
29417;BME280;28421;51.030;4.006;2023-04-04T04:24:16;102876.84;;;-0.98;75.40
29417;BME280;28421;51.030;4.006;2023-04-04T04:26:42;102825.09;;;-1.32;75.49
29417;BME280;28421;51.030;4.006;2023-04-04T04:29:07;102861.69;;;-1.19;75.37
29417;BME280;28421;51.030;4.006;2023-04-04T04:31:36;102880.19;;;-1.21;75.97
29417;BME280;28421;51.030;4.006;2023-04-04T04:34:04;102894.78;;;-1.09;75.91
29417;BME280;28421;51.030;4.006;2023-04-04T04:36:30;102888.88;;;-1.17;75.71
29417;BME280;28421;51.030;4.006;2023-04-04T04:39:17;102885.28;;;-1.15;75.82
29417;BME280;28421;51.030;4.006;2023-04-04T04:41:56;102853.13;;;-1.28;75.92
29417;BME280;28421;51.030;4.006;2023-04-04T04:44:23;102880.81;;;-1.13;75.61
29417;BME280;28421;51.030;4.006;2023-04-04T04:46:48;102904.97;;;-0.97;75.60
29417;BME280;28421;51.030;4.006;2023-04-04T04:49:15;102892.97;;;-1.07;75.95
29417;BME280;28421;51.030;4.006;2023-04-04T04:51:42;102897.25;;;-1.03;75.50
29417;BME280;28421;51.030;4.006;2023-04-04T04:54:09;102883.50;;;-1.14;75.29
29417;BME280;28421;51.030;4.006;2023-04-04T04:56:36;102864.47;;;-1.24;75.49
29417;BME280;28421;51.030;4.006;2023-04-04T04:59:07;102899.03;;;-1.04;75.18
29417;BME280;28421;51.030;4.006;2023-04-04T05:01:35;102864.72;;;-1.33;75.33
29417;BME280;28421;51.030;4.006;2023-04-04T05:04:00;102844.03;;;-1.47;75.99
29417;BME280;28421;51.030;4.006;2023-04-04T05:06:35;102906.44;;;-1.16;75.73
29417;BME280;28421;51.030;4.006;2023-04-04T05:09:05;102893.66;;;-1.30;75.79
29417;BME280;28421;51.030;4.006;2023-04-04T05:11:34;102891.03;;;-1.30;75.87
29417;BME280;28421;51.030;4.006;2023-04-04T05:14:01;102883.03;;;-1.27;75.75
29417;BME280;28421;51.030;4.006;2023-04-04T05:16:29;102898.50;;;-1.15;75.62
29417;BME280;28421;51.030;4.006;2023-04-04T05:18:56;102861.22;;;-1.34;75.67
29417;BME280;28421;51.030;4.006;2023-04-04T05:21:22;102869.97;;;-1.32;75.76
29417;BME280;28421;51.030;4.006;2023-04-04T05:23:49;102892.03;;;-1.34;76.03
29417;BME280;28421;51.030;4.006;2023-04-04T05:26:16;102923.88;;;-1.11;76.36
29417;BME280;28421;51.030;4.006;2023-04-04T05:28:42;102888.25;;;-1.26;76.39
29417;BME280;28421;51.030;4.006;2023-04-04T05:31:07;102918.41;;;-1.05;76.13
29417;BME280;28421;51.030;4.006;2023-04-04T05:33:35;102875.25;;;-1.32;75.81
29417;BME280;28421;51.030;4.006;2023-04-04T05:36:10;102886.66;;;-1.31;75.94
29417;BME280;28421;51.030;4.006;2023-04-04T05:38:41;102918.88;;;-1.20;75.99
29417;BME280;28421;51.030;4.006;2023-04-04T05:41:08;102914.50;;;-1.21;75.99
29417;BME280;28421;51.030;4.006;2023-04-04T05:43:34;102921.41;;;-1.17;76.36
29417;BME280;28421;51.030;4.006;2023-04-04T05:46:13;102923.97;;;-1.14;76.51
29417;BME280;28421;51.030;4.006;2023-04-04T05:48:44;102916.69;;;-1.06;76.38
29417;BME280;28421;51.030;4.006;2023-04-04T05:51:11;102898.25;;;-1.07;76.18
29417;BME280;28421;51.030;4.006;2023-04-04T05:53:47;102925.88;;;-0.89;75.83
29417;BME280;28421;51.030;4.006;2023-04-04T05:56:17;102939.50;;;-0.75;75.99
29417;BME280;28421;51.030;4.006;2023-04-04T05:58:43;102928.94;;;-0.75;75.56
29417;BME280;28421;51.030;4.006;2023-04-04T06:01:12;102907.84;;;-0.77;75.86
29417;BME280;28421;51.030;4.006;2023-04-04T06:03:38;102930.56;;;-0.71;75.26
29417;BME280;28421;51.030;4.006;2023-04-04T06:06:08;102912.53;;;-0.85;75.80
29417;BME280;28421;51.030;4.006;2023-04-04T06:08:34;102950.28;;;-0.53;75.73
29417;BME280;28421;51.030;4.006;2023-04-04T06:10:59;102907.78;;;-0.73;75.67
29417;BME280;28421;51.030;4.006;2023-04-04T06:13:25;102949.28;;;-0.49;75.48
29417;BME280;28421;51.030;4.006;2023-04-04T06:15:56;102958.63;;;-0.39;75.56
29417;BME280;28421;51.030;4.006;2023-04-04T06:18:22;102948.97;;;-0.40;75.08
29417;BME280;28421;51.030;4.006;2023-04-04T06:20:47;102929.78;;;-0.46;75.57
29417;BME280;28421;51.030;4.006;2023-04-04T06:23:14;102929.38;;;-0.34;75.36
29417;BME280;28421;51.030;4.006;2023-04-04T06:25:43;102945.16;;;-0.31;75.40
29417;BME280;28421;51.030;4.006;2023-04-04T06:28:09;102949.69;;;-0.08;75.07
29417;BME280;28421;51.030;4.006;2023-04-04T06:30:36;102957.72;;;-0.11;74.81
29417;BME280;28421;51.030;4.006;2023-04-04T06:33:04;102974.56;;;0.11;74.97
29417;BME280;28421;51.030;4.006;2023-04-04T06:35:31;102948.13;;;0.11;75.09
29417;BME280;28421;51.030;4.006;2023-04-04T06:37:58;102978.09;;;0.37;74.58
29417;BME280;28421;51.030;4.006;2023-04-04T06:40:25;102973.66;;;0.37;74.35
29417;BME280;28421;51.030;4.006;2023-04-04T06:42:51;102985.34;;;0.32;74.70
29417;BME280;28421;51.030;4.006;2023-04-04T06:45:20;102985.00;;;0.41;74.42
29417;BME280;28421;51.030;4.006;2023-04-04T06:47:45;102952.13;;;0.23;74.67
29417;BME280;28421;51.030;4.006;2023-04-04T06:50:11;102990.78;;;0.52;74.07
29417;BME280;28421;51.030;4.006;2023-04-04T06:52:37;102942.16;;;0.31;73.81
29417;BME280;28421;51.030;4.006;2023-04-04T06:55:03;102962.72;;;0.48;73.82
29417;BME280;28421;51.030;4.006;2023-04-04T06:57:29;102977.59;;;0.76;73.17
29417;BME280;28421;51.030;4.006;2023-04-04T06:59:54;102979.91;;;0.85;73.48
29417;BME280;28421;51.030;4.006;2023-04-04T07:02:19;102957.78;;;0.86;73.38
29417;BME280;28421;51.030;4.006;2023-04-04T07:04:45;102958.53;;;0.89;73.60
29417;BME280;28421;51.030;4.006;2023-04-04T07:07:11;102989.41;;;1.14;73.11
29417;BME280;28421;51.030;4.006;2023-04-04T07:09:36;102977.75;;;1.18;72.88
29417;BME280;28421;51.030;4.006;2023-04-04T07:12:02;102967.72;;;1.26;72.95
29417;BME280;28421;51.030;4.006;2023-04-04T07:14:28;102993.28;;;1.51;73.20
29417;BME280;28421;51.030;4.006;2023-04-04T07:16:53;102952.59;;;1.52;73.18
29417;BME280;28421;51.030;4.006;2023-04-04T07:19:19;102955.13;;;1.55;72.27
29417;BME280;28421;51.030;4.006;2023-04-04T07:21:44;102901.34;;;1.51;71.92
29417;BME280;28421;51.030;4.006;2023-04-04T07:24:10;102957.25;;;1.89;71.46
29417;BME280;28421;51.030;4.006;2023-04-04T07:26:35;102948.50;;;1.87;69.87
29417;BME280;28421;51.030;4.006;2023-04-04T07:29:01;102984.94;;;2.24;68.97
29417;BME280;28421;51.030;4.006;2023-04-04T07:31:26;102953.03;;;2.26;69.98
29417;BME280;28421;51.030;4.006;2023-04-04T07:33:52;102954.50;;;2.33;69.03
29417;BME280;28421;51.030;4.006;2023-04-04T07:36:18;102943.66;;;2.37;66.63
29417;BME280;28421;51.030;4.006;2023-04-04T07:38:44;102967.34;;;2.62;66.55
29417;BME280;28421;51.030;4.006;2023-04-04T07:41:09;102952.66;;;2.74;66.84
29417;BME280;28421;51.030;4.006;2023-04-04T07:43:36;102952.78;;;2.90;65.71
29417;BME280;28421;51.030;4.006;2023-04-04T07:46:02;102934.34;;;2.87;63.82
29417;BME280;28421;51.030;4.006;2023-04-04T07:48:28;102962.22;;;3.16;64.92
29417;BME280;28421;51.030;4.006;2023-04-04T07:50:53;102961.56;;;3.30;64.83
29417;BME280;28421;51.030;4.006;2023-04-04T07:53:18;102908.13;;;3.17;63.58
29417;BME280;28421;51.030;4.006;2023-04-04T07:55:44;102904.03;;;3.46;64.01
29417;BME280;28421;51.030;4.006;2023-04-04T07:58:09;102923.31;;;3.68;62.21
29417;BME280;28421;51.030;4.006;2023-04-04T08:00:35;102931.34;;;3.86;62.34
29417;BME280;28421;51.030;4.006;2023-04-04T08:03:00;102938.94;;;4.11;61.30
29417;BME280;28421;51.030;4.006;2023-04-04T08:05:27;102926.22;;;4.16;60.20
29417;BME280;28421;51.030;4.006;2023-04-04T08:07:53;102953.69;;;4.34;61.76
29417;BME280;28421;51.030;4.006;2023-04-04T08:10:18;102950.72;;;4.40;61.18
29417;BME280;28421;51.030;4.006;2023-04-04T08:12:46;102936.06;;;4.48;60.77
29417;BME280;28421;51.030;4.006;2023-04-04T08:15:11;102903.56;;;4.42;59.58
29417;BME280;28421;51.030;4.006;2023-04-04T08:17:37;102910.38;;;4.63;57.74
29417;BME280;28421;51.030;4.006;2023-04-04T08:20:03;102934.16;;;4.84;56.78
29417;BME280;28421;51.030;4.006;2023-04-04T08:22:29;102960.34;;;5.09;58.63
29417;BME280;28421;51.030;4.006;2023-04-04T08:24:54;102933.41;;;4.82;52.43
29417;BME280;28421;51.030;4.006;2023-04-04T08:27:20;102943.09;;;4.83;52.76
29417;BME280;28421;51.030;4.006;2023-04-04T08:29:45;102919.53;;;4.75;52.27
29417;BME280;28421;51.030;4.006;2023-04-04T08:32:12;102926.84;;;4.87;52.59
29417;BME280;28421;51.030;4.006;2023-04-04T08:34:39;102957.09;;;5.19;52.71
29417;BME280;28421;51.030;4.006;2023-04-04T08:37:06;102956.13;;;5.20;52.58
29417;BME280;28421;51.030;4.006;2023-04-04T08:39:31;102943.31;;;5.27;52.67
29417;BME280;28421;51.030;4.006;2023-04-04T08:42:05;102914.47;;;5.34;52.53
29417;BME280;28421;51.030;4.006;2023-04-04T08:44:32;102942.38;;;5.44;52.19
29417;BME280;28421;51.030;4.006;2023-04-04T08:46:59;102977.53;;;5.82;52.90
29417;BME280;28421;51.030;4.006;2023-04-04T08:49:28;102927.69;;;5.67;51.86
29417;BME280;28421;51.030;4.006;2023-04-04T08:51:57;102968.28;;;5.88;51.16
29417;BME280;28421;51.030;4.006;2023-04-04T08:54:24;102961.41;;;6.00;52.54
29417;BME280;28421;51.030;4.006;2023-04-04T08:56:51;102949.34;;;5.92;50.73
29417;BME280;28421;51.030;4.006;2023-04-04T08:59:16;102965.28;;;6.24;50.69
29417;BME280;28421;51.030;4.006;2023-04-04T09:01:43;102975.25;;;6.06;47.57
29417;BME280;28421;51.030;4.006;2023-04-04T09:04:09;102916.09;;;5.98;51.67
29417;BME280;28421;51.030;4.006;2023-04-04T09:06:36;102953.56;;;6.27;48.68
29417;BME280;28421;51.030;4.006;2023-04-04T09:09:02;102959.09;;;6.23;48.83
29417;BME280;28421;51.030;4.006;2023-04-04T09:11:30;102943.00;;;6.39;49.83
29417;BME280;28421;51.030;4.006;2023-04-04T09:13:56;102927.34;;;6.47;51.11
29417;BME280;28421;51.030;4.006;2023-04-04T09:16:22;102955.25;;;6.72;47.39
29417;BME280;28421;51.030;4.006;2023-04-04T09:18:48;102924.94;;;6.29;47.99
29417;BME280;28421;51.030;4.006;2023-04-04T09:21:14;102938.63;;;6.53;49.02
29417;BME280;28421;51.030;4.006;2023-04-04T09:23:39;102939.88;;;6.47;47.89
29417;BME280;28421;51.030;4.006;2023-04-04T09:26:05;102941.78;;;6.73;48.68
29417;BME280;28421;51.030;4.006;2023-04-04T09:28:32;102922.00;;;6.62;48.88
29417;BME280;28421;51.030;4.006;2023-04-04T09:31:01;102960.19;;;7.07;47.63
29417;BME280;28421;51.030;4.006;2023-04-04T09:33:27;102945.66;;;6.96;46.21
29417;BME280;28421;51.030;4.006;2023-04-04T09:35:57;102876.75;;;6.44;45.66
29417;BME280;28421;51.030;4.006;2023-04-04T09:38:25;102921.88;;;7.06;46.36
29417;BME280;28421;51.030;4.006;2023-04-04T09:40:51;102941.03;;;7.13;44.63
29417;BME280;28421;51.030;4.006;2023-04-04T09:43:17;102903.81;;;6.95;45.68
29417;BME280;28421;51.030;4.006;2023-04-04T09:45:44;102952.34;;;7.45;49.67
29417;BME280;28421;51.030;4.006;2023-04-04T09:48:10;102944.88;;;7.50;47.11
29417;BME280;28421;51.030;4.006;2023-04-04T09:50:39;102932.72;;;7.32;44.81
29417;BME280;28421;51.030;4.006;2023-04-04T09:53:15;102880.34;;;7.28;47.60
29417;BME280;28421;51.030;4.006;2023-04-04T09:55:41;102890.84;;;7.58;47.85
29417;BME280;28421;51.030;4.006;2023-04-04T09:58:15;102912.50;;;7.13;42.99
29417;BME280;28421;51.030;4.006;2023-04-04T10:00:41;102892.72;;;7.16;45.41
29417;BME280;28421;51.030;4.006;2023-04-04T10:03:13;102880.34;;;7.28;46.70
29417;BME280;28421;51.030;4.006;2023-04-04T10:05:39;102943.53;;;7.57;44.57
29417;BME280;28421;51.030;4.006;2023-04-04T10:08:21;102936.09;;;7.88;47.38
29417;BME280;28421;51.030;4.006;2023-04-04T10:10:50;102924.78;;;7.30;43.97
29417;BME280;28421;51.030;4.006;2023-04-04T10:13:31;102944.19;;;7.61;45.97
29417;BME280;28421;51.030;4.006;2023-04-04T10:15:58;102934.47;;;7.45;44.30
29417;BME280;28421;51.030;4.006;2023-04-04T10:18:29;102932.63;;;7.60;44.74
29417;BME280;28421;51.030;4.006;2023-04-04T10:20:59;102891.28;;;7.64;47.05
29417;BME280;28421;51.030;4.006;2023-04-04T10:23:25;102896.81;;;7.48;43.81
29417;BME280;28421;51.030;4.006;2023-04-04T10:25:53;102921.88;;;7.47;41.62
29417;BME280;28421;51.030;4.006;2023-04-04T10:28:19;102912.66;;;7.91;45.40
29417;BME280;28421;51.030;4.006;2023-04-04T10:31:01;102917.84;;;8.07;43.90
29417;BME280;28421;51.030;4.006;2023-04-04T10:33:42;102917.78;;;7.82;43.52
29417;BME280;28421;51.030;4.006;2023-04-04T10:36:10;102929.66;;;8.30;47.36
29417;BME280;28421;51.030;4.006;2023-04-04T10:38:44;102889.00;;;7.58;43.52
29417;BME280;28421;51.030;4.006;2023-04-04T10:41:13;102933.41;;;8.28;45.71
29417;BME280;28421;51.030;4.006;2023-04-04T10:43:40;102907.28;;;8.44;45.57
29417;BME280;28421;51.030;4.006;2023-04-04T10:46:12;102889.13;;;8.35;46.02
29417;BME280;28421;51.030;4.006;2023-04-04T10:48:40;102922.16;;;8.74;45.69
29417;BME280;28421;51.030;4.006;2023-04-04T10:51:10;102888.06;;;8.50;43.42
29417;BME280;28421;51.030;4.006;2023-04-04T10:53:37;102907.16;;;8.45;42.73
29417;BME280;28421;51.030;4.006;2023-04-04T10:56:04;102840.38;;;8.42;42.74
29417;BME280;28421;51.030;4.006;2023-04-04T10:58:29;102902.13;;;8.79;42.53
29417;BME280;28421;51.030;4.006;2023-04-04T11:00:55;102902.41;;;8.75;43.88
29417;BME280;28421;51.030;4.006;2023-04-04T11:03:21;102868.53;;;8.35;43.13
29417;BME280;28421;51.030;4.006;2023-04-04T11:05:47;102832.09;;;8.33;42.62
29417;BME280;28421;51.030;4.006;2023-04-04T11:08:17;102869.00;;;8.55;42.59
29417;BME280;28421;51.030;4.006;2023-04-04T11:10:48;102886.03;;;9.03;43.17
29417;BME280;28421;51.030;4.006;2023-04-04T11:13:30;102897.50;;;9.18;42.08
29417;BME280;28421;51.030;4.006;2023-04-04T11:16:12;102897.59;;;8.80;41.06
29417;BME280;28421;51.030;4.006;2023-04-04T11:21:18;102887.19;;;9.12;42.97
29417;BME280;28421;51.030;4.006;2023-04-04T11:26:34;102840.56;;;9.02;41.08
29417;BME280;28421;51.030;4.006;2023-04-04T11:29:01;102838.00;;;9.00;41.21
29417;BME280;28421;51.030;4.006;2023-04-04T11:31:32;102875.84;;;9.32;41.23
29417;BME280;28421;51.030;4.006;2023-04-04T11:34:02;102869.53;;;9.33;43.21
29417;BME280;28421;51.030;4.006;2023-04-04T11:39:00;102846.53;;;9.53;40.12
29417;BME280;28421;51.030;4.006;2023-04-04T11:44:19;102810.69;;;9.30;38.96
29417;BME280;28421;51.030;4.006;2023-04-04T11:46:47;102832.34;;;8.92;39.16
29417;BME280;28421;51.030;4.006;2023-04-04T11:49:14;102802.69;;;8.93;41.16
29417;BME280;28421;51.030;4.006;2023-04-04T11:51:40;102850.06;;;9.54;42.28
29417;BME280;28421;51.030;4.006;2023-04-04T11:54:16;102828.56;;;9.18;40.51
29417;BME280;28421;51.030;4.006;2023-04-04T11:56:42;102820.66;;;9.52;40.98
29417;BME280;28421;51.030;4.006;2023-04-04T11:59:12;102814.91;;;9.45;41.70
29417;BME280;28421;51.030;4.006;2023-04-04T12:01:41;102818.22;;;9.60;41.59
29417;BME280;28421;51.030;4.006;2023-04-04T12:04:08;102798.34;;;9.74;41.94
29417;BME280;28421;51.030;4.006;2023-04-04T12:06:34;102796.75;;;9.25;39.08
29417;BME280;28421;51.030;4.006;2023-04-04T12:09:03;102841.59;;;9.82;40.60
29417;BME280;28421;51.030;4.006;2023-04-04T12:11:33;102782.59;;;9.69;41.01
29417;BME280;28421;51.030;4.006;2023-04-04T12:13:59;102791.78;;;9.78;39.14
29417;BME280;28421;51.030;4.006;2023-04-04T12:16:26;102770.16;;;9.91;40.13
29417;BME280;28421;51.030;4.006;2023-04-04T12:18:52;102793.88;;;9.75;39.67
29417;BME280;28421;51.030;4.006;2023-04-04T12:21:18;102778.06;;;9.70;37.57
29417;BME280;28421;51.030;4.006;2023-04-04T12:23:45;102749.47;;;9.46;38.62
29417;BME280;28421;51.030;4.006;2023-04-04T12:26:14;102813.13;;;9.68;39.35
29417;BME280;28421;51.030;4.006;2023-04-04T12:28:41;102767.47;;;9.91;39.64
29417;BME280;28421;51.030;4.006;2023-04-04T12:31:08;102794.41;;;9.56;37.85
29417;BME280;28421;51.030;4.006;2023-04-04T12:33:34;102810.75;;;10.10;39.46
29417;BME280;28421;51.030;4.006;2023-04-04T12:36:04;102818.34;;;10.16;39.50
29417;BME280;28421;51.030;4.006;2023-04-04T12:38:31;102790.47;;;10.17;39.32
29417;BME280;28421;51.030;4.006;2023-04-04T12:40:57;102760.91;;;10.06;37.85
29417;BME280;28421;51.030;4.006;2023-04-04T12:43:26;102764.72;;;10.04;38.64
29417;BME280;28421;51.030;4.006;2023-04-04T12:45:54;102741.50;;;9.91;38.71
29417;BME280;28421;51.030;4.006;2023-04-04T12:48:26;102796.50;;;10.55;41.77
29417;BME280;28421;51.030;4.006;2023-04-04T12:50:53;102788.75;;;10.61;40.32
29417;BME280;28421;51.030;4.006;2023-04-04T12:53:20;102750.66;;;10.45;39.22
29417;BME280;28421;51.030;4.006;2023-04-04T12:55:47;102766.75;;;10.67;39.82
29417;BME280;28421;51.030;4.006;2023-04-04T12:58:15;102766.66;;;10.35;41.65
29417;BME280;28421;51.030;4.006;2023-04-04T13:00:41;102777.41;;;10.58;38.07
29417;BME280;28421;51.030;4.006;2023-04-04T13:03:07;102720.97;;;10.35;38.46
29417;BME280;28421;51.030;4.006;2023-04-04T13:05:34;102761.63;;;10.64;39.86
29417;BME280;28421;51.030;4.006;2023-04-04T13:08:07;102752.22;;;10.59;37.79
29417;BME280;28421;51.030;4.006;2023-04-04T13:10:56;102760.06;;;10.94;38.38
29417;BME280;28421;51.030;4.006;2023-04-04T13:13:38;102735.13;;;10.92;40.37
29417;BME280;28421;51.030;4.006;2023-04-04T13:16:11;102711.38;;;10.97;39.29
29417;BME280;28421;51.030;4.006;2023-04-04T13:18:42;102729.09;;;10.67;38.20
29417;BME280;28421;51.030;4.006;2023-04-04T13:21:10;102724.56;;;10.68;37.63
29417;BME280;28421;51.030;4.006;2023-04-04T13:23:38;102733.56;;;10.35;36.69
29417;BME280;28421;51.030;4.006;2023-04-04T13:26:05;102700.59;;;10.65;40.25
29417;BME280;28421;51.030;4.006;2023-04-04T13:28:31;102703.44;;;10.52;37.72
29417;BME280;28421;51.030;4.006;2023-04-04T13:30:56;102719.41;;;10.76;36.98
29417;BME280;28421;51.030;4.006;2023-04-04T13:33:22;102694.50;;;10.63;37.03
29417;BME280;28421;51.030;4.006;2023-04-04T13:35:48;102690.31;;;9.93;36.34
29417;BME280;28421;51.030;4.006;2023-04-04T13:38:15;102719.63;;;10.30;38.00
29417;BME280;28421;51.030;4.006;2023-04-04T13:40:40;102687.69;;;10.48;37.43
29417;BME280;28421;51.030;4.006;2023-04-04T13:43:06;102736.59;;;10.85;39.19
29417;BME280;28421;51.030;4.006;2023-04-04T13:45:33;102689.88;;;10.86;40.44
29417;BME280;28421;51.030;4.006;2023-04-04T13:47:59;102711.50;;;10.63;35.88
29417;BME280;28421;51.030;4.006;2023-04-04T13:50:24;102710.25;;;10.67;37.34
29417;BME280;28421;51.030;4.006;2023-04-04T13:52:50;102667.72;;;10.61;38.18
29417;BME280;28421;51.030;4.006;2023-04-04T13:55:17;102722.91;;;11.20;39.41
29417;BME280;28421;51.030;4.006;2023-04-04T13:57:42;102712.41;;;11.06;36.04
29417;BME280;28421;51.030;4.006;2023-04-04T14:00:08;102702.84;;;11.13;36.63
29417;BME280;28421;51.030;4.006;2023-04-04T14:02:36;102658.72;;;10.83;36.50
29417;BME280;28421;51.030;4.006;2023-04-04T14:05:02;102696.94;;;11.19;36.63
29417;BME280;28421;51.030;4.006;2023-04-04T14:07:27;102697.22;;;11.16;37.61
29417;BME280;28421;51.030;4.006;2023-04-04T14:09:53;102700.88;;;11.36;37.85
29417;BME280;28421;51.030;4.006;2023-04-04T14:12:18;102669.16;;;11.18;36.42
29417;BME280;28421;51.030;4.006;2023-04-04T14:14:44;102680.25;;;10.83;35.97
29417;BME280;28421;51.030;4.006;2023-04-04T14:17:09;102686.94;;;11.10;35.63
29417;BME280;28421;51.030;4.006;2023-04-04T14:19:37;102680.88;;;10.76;37.15
29417;BME280;28421;51.030;4.006;2023-04-04T14:22:02;102636.84;;;10.77;39.04
29417;BME280;28421;51.030;4.006;2023-04-04T14:24:29;102687.00;;;10.99;36.30
29417;BME280;28421;51.030;4.006;2023-04-04T14:26:54;102671.06;;;11.28;36.38
29417;BME280;28421;51.030;4.006;2023-04-04T14:29:20;102642.66;;;10.61;34.42
29417;BME280;28421;51.030;4.006;2023-04-04T14:31:46;102654.06;;;11.06;37.07
29417;BME280;28421;51.030;4.006;2023-04-04T14:34:11;102673.22;;;11.34;37.89
29417;BME280;28421;51.030;4.006;2023-04-04T14:36:36;102657.47;;;11.08;34.68
29417;BME280;28421;51.030;4.006;2023-04-04T14:39:02;102662.03;;;10.76;33.80
29417;BME280;28421;51.030;4.006;2023-04-04T14:41:27;102672.78;;;10.87;34.94
29417;BME280;28421;51.030;4.006;2023-04-04T14:43:53;102652.22;;;11.07;36.51
29417;BME280;28421;51.030;4.006;2023-04-04T14:46:18;102664.69;;;11.29;37.60
29417;BME280;28421;51.030;4.006;2023-04-04T14:48:44;102650.84;;;11.12;36.64
29417;BME280;28421;51.030;4.006;2023-04-04T14:51:10;102653.44;;;11.24;36.17
29417;BME280;28421;51.030;4.006;2023-04-04T14:53:35;102653.84;;;11.19;34.98
29417;BME280;28421;51.030;4.006;2023-04-04T14:56:01;102618.78;;;11.30;35.86
29417;BME280;28421;51.030;4.006;2023-04-04T14:58:26;102649.78;;;11.25;35.30
29417;BME280;28421;51.030;4.006;2023-04-04T15:00:51;102621.28;;;11.53;36.32
29417;BME280;28421;51.030;4.006;2023-04-04T15:03:17;102607.75;;;11.33;35.27
29417;BME280;28421;51.030;4.006;2023-04-04T15:05:42;102607.50;;;11.36;35.06
29417;BME280;28421;51.030;4.006;2023-04-04T15:08:08;102612.28;;;11.63;34.41
29417;BME280;28421;51.030;4.006;2023-04-04T15:10:34;102628.03;;;11.37;34.29
29417;BME280;28421;51.030;4.006;2023-04-04T15:13:00;102623.25;;;10.78;32.76
29417;BME280;28421;51.030;4.006;2023-04-04T15:15:25;102625.41;;;11.26;34.33
29417;BME280;28421;51.030;4.006;2023-04-04T15:17:53;102626.91;;;11.40;34.39
29417;BME280;28421;51.030;4.006;2023-04-04T15:20:18;102606.00;;;11.02;33.38
29417;BME280;28421;51.030;4.006;2023-04-04T15:22:44;102614.84;;;11.34;35.40
29417;BME280;28421;51.030;4.006;2023-04-04T15:25:09;102611.50;;;11.52;35.14
29417;BME280;28421;51.030;4.006;2023-04-04T15:27:35;102591.34;;;11.15;34.33
29417;BME280;28421;51.030;4.006;2023-04-04T15:30:00;102564.50;;;11.35;34.62
29417;BME280;28421;51.030;4.006;2023-04-04T15:32:26;102598.94;;;11.31;35.04
29417;BME280;28421;51.030;4.006;2023-04-04T15:34:52;102582.28;;;11.47;34.22
29417;BME280;28421;51.030;4.006;2023-04-04T15:37:17;102572.31;;;11.28;34.20
29417;BME280;28421;51.030;4.006;2023-04-04T15:39:43;102592.81;;;11.50;34.09
29417;BME280;28421;51.030;4.006;2023-04-04T15:42:10;102595.41;;;11.31;34.71
29417;BME280;28421;51.030;4.006;2023-04-04T15:44:36;102563.75;;;11.23;36.39
29417;BME280;28421;51.030;4.006;2023-04-04T15:47:02;102596.59;;;11.78;34.89
29417;BME280;28421;51.030;4.006;2023-04-04T15:49:27;102572.75;;;11.33;32.85
29417;BME280;28421;51.030;4.006;2023-04-04T15:51:53;102571.25;;;11.19;34.73
29417;BME280;28421;51.030;4.006;2023-04-04T15:54:18;102569.81;;;11.46;34.75
29417;BME280;28421;51.030;4.006;2023-04-04T15:56:44;102566.47;;;11.63;33.42
29417;BME280;28421;51.030;4.006;2023-04-04T15:59:09;102556.03;;;11.80;34.33
29417;BME280;28421;51.030;4.006;2023-04-04T16:01:35;102560.84;;;11.76;32.72
29417;BME280;28421;51.030;4.006;2023-04-04T16:04:01;102555.78;;;11.52;32.57
29417;BME280;28421;51.030;4.006;2023-04-04T16:06:26;102568.84;;;11.97;35.03
29417;BME280;28421;51.030;4.006;2023-04-04T16:08:54;102556.94;;;12.19;32.89
29417;BME280;28421;51.030;4.006;2023-04-04T16:11:20;102560.66;;;11.99;32.88
29417;BME280;28421;51.030;4.006;2023-04-04T16:13:46;102537.97;;;12.40;34.67
29417;BME280;28421;51.030;4.006;2023-04-04T16:16:11;102546.69;;;11.84;34.30
29417;BME280;28421;51.030;4.006;2023-04-04T16:18:37;102532.13;;;12.15;33.84
29417;BME280;28421;51.030;4.006;2023-04-04T16:21:03;102559.63;;;11.50;32.47
29417;BME280;28421;51.030;4.006;2023-04-04T16:23:30;102575.97;;;11.67;34.21
29417;BME280;28421;51.030;4.006;2023-04-04T16:25:56;102563.13;;;11.10;34.30